Time;durP1;ratioP1;P1;durP2;ratioP2;P2;SDS_P1;SDS_P2;PMS_P1;PMS_P2;Temp;Humidity;BMP_temperature;BMP_pressure;BME280_temperature;BME280_humidity;BME280_pressure;Samples;Min_cycle;Max_cycle;Signal;HPM_P1;HPM_P2
2023/06/20 00:02:41;;;;;;;5.18;4.25;;;;;;;;;;12991457;19;20010;-62
2023/06/20 00:07:00;;;;;;;5.43;4.43;;;;;;;;;;12991310;19;20370;-63
2023/06/20 00:11:19;;;;;;;6.65;4.60;;;;;;;;;;12990709;19;20386;-63
2023/06/20 00:15:41;;;;;;;5.45;4.15;;;;;;;;;;12989413;19;20028;-64
2023/06/20 00:19:58;;;;;;;5.93;4.93;;;;;;;;;;12990047;19;20014;-63
2023/06/20 00:24:17;;;;;;;6.18;4.68;;;;;;;;;;12988981;19;20018;-63
2023/06/20 00:28:35;;;;;;;6.47;4.65;;;;;;;;;;12990052;19;20011;-63
2023/06/20 00:32:53;;;;;;;4.93;3.55;;;;;;;;;;12990365;19;20031;-63
2023/06/20 00:37:11;;;;;;;4.82;4.25;;;;;;;;;;12988984;19;20017;-65
2023/06/20 00:41:31;;;;;;;5.45;3.95;;;;;;;;;;12990294;19;20007;-64
2023/06/20 00:45:50;;;;;;;6.97;4.32;;;;;;;;;;12989323;19;20703;-63
2023/06/20 00:50:09;;;;;;;7.18;4.63;;;;;;;;;;12988620;19;20015;-62
2023/06/20 00:54:27;;;;;;;7.47;4.63;;;;;;;;;;12988688;19;20027;-63
2023/06/20 00:58:46;;;;;;;5.97;4.30;;;;;;;;;;12987522;19;20053;-63
2023/06/20 01:03:11;;;;;;;6.85;4.63;;;;;;;;;;12986548;19;20035;-63
2023/06/20 01:07:42;;;;;;;6.60;4.15;;;;;;;;;;12986187;19;20039;-63
2023/06/20 01:12:29;;;;;;;7.07;4.70;;;;;;;;;;12986548;19;20038;-63
2023/06/20 01:16:57;;;;;;;;;;;;;;;;;;12988086;19;20018;-64
2023/06/20 01:21:23;;;;;;;6.82;4.43;;;;;;;;;;12986966;19;19922;-64
2023/06/20 01:26:02;;;;;;;6.72;4.30;;;;;;;;;;12986664;19;20019;-63
2023/06/20 01:30:33;;;;;;;7.07;5.03;;;;;;;;;;12984977;19;20050;-63
2023/06/20 01:35:10;;;;;;;5.60;4.35;;;;;;;;;;12985198;19;20022;-63
2023/06/20 01:39:45;;;;;;;4.13;3.72;;;;;;;;;;12985655;19;20014;-63
2023/06/20 01:44:06;;;;;;;5.20;4.18;;;;;;;;;;12983053;19;20021;-63
2023/06/20 01:48:27;;;;;;;8.73;4.88;;;;;;;;;;12983966;19;20022;-63
2023/06/20 01:52:47;;;;;;;6.13;4.57;;;;;;;;;;12983184;19;20025;-63
2023/06/20 01:57:06;;;;;;;5.70;4.45;;;;;;;;;;12982851;19;20015;-62
2023/06/20 02:01:26;;;;;;;6.75;4.93;;;;;;;;;;12984450;19;20015;-64
2023/06/20 02:05:46;;;;;;;6.75;4.80;;;;;;;;;;12983338;19;20481;-62
2023/06/20 02:10:05;;;;;;;6.25;4.55;;;;;;;;;;12984204;19;20014;-63
2023/06/20 02:14:25;;;;;;;6.55;4.28;;;;;;;;;;12980802;19;20021;-64
2023/06/20 02:18:43;;;;;;;6.78;5.05;;;;;;;;;;12982367;19;20014;-65
2023/06/20 02:23:07;;;;;;;5.85;4.60;;;;;;;;;;12981598;19;20552;-63
2023/06/20 02:27:26;;;;;;;6.30;4.68;;;;;;;;;;12981766;19;20014;-63
2023/06/20 02:31:48;;;;;;;8.98;4.72;;;;;;;;;;12982783;19;20399;-62
2023/06/20 02:36:08;;;;;;;6.70;4.88;;;;;;;;;;12980177;19;20021;-63
2023/06/20 02:40:27;;;;;;;6.90;5.30;;;;;;;;;;12981941;19;20021;-63
2023/06/20 02:44:45;;;;;;;7.03;4.35;;;;;;;;;;12984236;19;20073;-64
2023/06/20 02:49:32;;;;;;;9.32;5.03;;;;;;;;;;12981542;19;20034;-63
2023/06/20 02:54:18;;;;;;;9.05;5.32;;;;;;;;;;12980471;19;20018;-63
2023/06/20 02:58:41;;;;;;;6.53;5.30;;;;;;;;;;12981717;19;20023;-63
2023/06/20 03:03:09;;;;;;;7.55;4.85;;;;;;;;;;12979859;19;20481;-63
2023/06/20 03:07:33;;;;;;;7.40;4.95;;;;;;;;;;12980661;19;20394;-63
2023/06/20 03:11:51;;;;;;;7.13;4.65;;;;;;;;;;12981110;19;20364;-63
2023/06/20 03:16:10;;;;;;;8.18;5.75;;;;;;;;;;12979017;19;20011;-63
2023/06/20 03:20:28;;;;;;;6.20;5.25;;;;;;;;;;12980906;19;20018;-63
2023/06/20 03:24:47;;;;;;;5.72;5.00;;;;;;;;;;12980256;19;20010;-63
2023/06/20 03:29:05;;;;;;;7.80;5.07;;;;;;;;;;12991458;19;20014;-63
2023/06/20 03:33:23;;;;;;;;;;;;;;;;;;12989787;19;20082;-62
2023/06/20 03:37:40;;;;;;;6.82;5.40;;;;;;;;;;12991888;19;19922;-63
2023/06/20 03:41:59;;;;;;;8.48;5.00;;;;;;;;;;12992011;19;20018;-64
2023/06/20 03:46:16;;;;;;;6.95;5.13;;;;;;;;;;12992617;19;20014;-63
2023/06/20 03:50:34;;;;;;;9.27;4.35;;;;;;;;;;12992600;19;20033;-63
2023/06/20 03:54:52;;;;;;;;;;;;;;;;;;12992385;19;20481;-64
2023/06/20 03:59:14;;;;;;;6.90;4.50;;;;;;;;;;12990909;19;19922;-63
2023/06/20 04:03:32;;;;;;;6.47;5.03;;;;;;;;;;12991421;19;20470;-63
2023/06/20 04:07:49;;;;;;;7.53;5.30;;;;;;;;;;12990234;19;20485;-63
2023/06/20 04:12:08;;;;;;;7.85;4.28;;;;;;;;;;12989250;19;20018;-62
2023/06/20 04:16:28;;;;;;;5.90;4.68;;;;;;;;;;12990152;19;20010;-63
2023/06/20 04:20:46;;;;;;;5.95;4.47;;;;;;;;;;12988241;19;20036;-63
2023/06/20 04:25:04;;;;;;;6.20;4.55;;;;;;;;;;12988623;19;20014;-63
2023/06/20 04:29:29;;;;;;;7.25;4.80;;;;;;;;;;12989106;19;20365;-64
2023/06/20 04:33:47;;;;;;;7.60;5.07;;;;;;;;;;12988739;19;20014;-64
2023/06/20 04:38:06;;;;;;;7.22;5.05;;;;;;;;;;12988096;19;20502;-64
2023/06/20 04:42:24;;;;;;;7.32;5.00;;;;;;;;;;12989132;19;20014;-64
2023/06/20 04:46:42;;;;;;;6.28;5.07;;;;;;;;;;12988844;19;20018;-63
2023/06/20 04:51:00;;;;;;;7.05;4.95;;;;;;;;;;12988362;19;20018;-64
2023/06/20 04:55:20;;;;;;;7.10;4.88;;;;;;;;;;12986478;19;20010;-63
2023/06/20 04:59:39;;;;;;;5.57;4.20;;;;;;;;;;12987842;19;20026;-63
2023/06/20 05:03:57;;;;;;;7.63;4.55;;;;;;;;;;12988065;19;20024;-63
2023/06/20 05:08:16;;;;;;;7.32;4.47;;;;;;;;;;12986304;19;20014;-64
2023/06/20 05:12:34;;;;;;;6.40;3.97;;;;;;;;;;12988367;19;20382;-63
2023/06/20 05:16:54;;;;;;;5.80;4.30;;;;;;;;;;12986602;19;20011;-63
2023/06/20 05:21:12;;;;;;;4.53;3.45;;;;;;;;;;12986598;19;20044;-63
2023/06/20 05:25:31;;;;;;;4.35;3.40;;;;;;;;;;12987922;19;20015;-64
2023/06/20 05:29:49;;;;;;;4.53;3.75;;;;;;;;;;12986048;19;20014;-63
2023/06/20 05:34:07;;;;;;;4.05;3.38;;;;;;;;;;12984711;19;20481;-63
2023/06/20 05:38:25;;;;;;;7.38;4.30;;;;;;;;;;12983711;19;20010;-63
2023/06/20 05:42:43;;;;;;;;;;;;;;;;;;12986282;19;20496;-63
2023/06/20 05:47:01;;;;;;;4.18;3.50;;;;;;;;;;12985280;19;19911;-64
2023/06/20 05:51:20;;;;;;;5.05;3.55;;;;;;;;;;12983429;19;20348;-63
2023/06/20 05:55:39;;;;;;;7.80;4.38;;;;;;;;;;12984520;19;20030;-63
2023/06/20 05:59:58;;;;;;;5.28;3.88;;;;;;;;;;12984615;19;20331;-63
2023/06/20 06:04:16;;;;;;;5.47;3.58;;;;;;;;;;12983939;19;20044;-63
2023/06/20 06:08:34;;;;;;;5.85;4.63;;;;;;;;;;12984879;19;20430;-63
2023/06/20 06:12:52;;;;;;;6.57;4.40;;;;;;;;;;12984884;19;20017;-63
2023/06/20 06:17:11;;;;;;;5.80;3.55;;;;;;;;;;12981572;19;20490;-63
2023/06/20 06:21:29;;;;;;;7.15;4.18;;;;;;;;;;12983665;19;20011;-63
2023/06/20 06:25:46;;;;;;;6.70;4.47;;;;;;;;;;12983608;19;20036;-63
2023/06/20 06:30:06;;;;;;;6.20;3.97;;;;;;;;;;12982532;19;20010;-63
2023/06/20 06:34:26;;;;;;;6.78;5.15;;;;;;;;;;12982508;19;20021;-63
2023/06/20 06:38:49;;;;;;;6.45;4.57;;;;;;;;;;12980025;19;20031;-63
2023/06/20 06:43:06;;;;;;;6.68;4.47;;;;;;;;;;12980469;19;20021;-63
2023/06/20 06:47:24;;;;;;;5.88;4.82;;;;;;;;;;12979972;19;20526;-63
2023/06/20 06:51:43;;;;;;;5.43;3.97;;;;;;;;;;12981617;19;20039;-62
2023/06/20 06:56:02;;;;;;;5.90;3.63;;;;;;;;;;12979190;19;20022;-63
2023/06/20 07:00:20;;;;;;;4.78;3.58;;;;;;;;;;12985036;19;20010;-63
2023/06/20 07:04:38;;;;;;;4.53;3.25;;;;;;;;;;12994609;19;20026;-62
2023/06/20 07:08:56;;;;;;;4.90;3.58;;;;;;;;;;12993898;19;20011;-63
2023/06/20 07:13:14;;;;;;;5.95;3.83;;;;;;;;;;12993197;19;20010;-63
2023/06/20 07:17:33;;;;;;;6.22;3.67;;;;;;;;;;12992698;19;20015;-63
2023/06/20 07:21:51;;;;;;;5.70;3.03;;;;;;;;;;12993163;19;20015;-63
2023/06/20 07:26:09;;;;;;;5.00;3.15;;;;;;;;;;12991338;19;20014;-62
2023/06/20 07:30:28;;;;;;;5.97;3.55;;;;;;;;;;12993173;19;20036;-63
2023/06/20 07:34:45;;;;;;;3.92;2.83;;;;;;;;;;12992207;19;20006;-63
2023/06/20 07:39:03;;;;;;;7.97;4.25;;;;;;;;;;12991509;19;20021;-63
2023/06/20 07:43:24;;;;;;;;;;;;;;;;;;12993001;19;20843;-64
2023/06/20 07:47:44;;;;;;;6.97;2.83;;;;;;;;;;12991867;19;19922;-62
2023/06/20 07:52:04;;;;;;;5.97;3.60;;;;;;;;;;12990658;19;20381;-63
2023/06/20 07:56:23;;;;;;;3.92;2.70;;;;;;;;;;12991433;19;20006;-62
2023/06/20 08:00:40;;;;;;;5.43;3.40;;;;;;;;;;12992390;19;20030;-63
2023/06/20 08:04:58;;;;;;;4.85;2.75;;;;;;;;;;12989096;19;20014;-63
2023/06/20 08:09:16;;;;;;;6.43;3.72;;;;;;;;;;12989988;19;20449;-62
2023/06/20 08:13:33;;;;;;;3.42;2.47;;;;;;;;;;12987789;19;20018;-63
2023/06/20 08:17:52;;;;;;;4.70;3.78;;;;;;;;;;12989751;19;20011;-62
2023/06/20 08:22:09;;;;;;;;;;;;;;;;;;12989299;19;20014;-63
2023/06/20 08:26:28;;;;;;;6.63;3.33;;;;;;;;;;12989287;19;19943;-64
2023/06/20 08:30:45;;;;;;;5.05;3.75;;;;;;;;;;12989902;19;20015;-63
2023/06/20 08:35:08;;;;;;;4.60;3.05;;;;;;;;;;12988044;19;20010;-63
2023/06/20 08:39:26;;;;;;;5.25;3.80;;;;;;;;;;12989594;19;20018;-63
2023/06/20 08:43:44;;;;;;;3.97;2.60;;;;;;;;;;12989102;19;20019;-63
2023/06/20 08:48:02;;;;;;;4.18;3.25;;;;;;;;;;12988757;19;20373;-64
2023/06/20 08:52:29;;;;;;;5.97;3.05;;;;;;;;;;12985687;19;20351;-65
2023/06/20 08:56:50;;;;;;;4.38;3.28;;;;;;;;;;12985556;19;20489;-63
2023/06/20 09:01:08;;;;;;;4.97;3.47;;;;;;;;;;12986597;19;20010;-64
2023/06/20 09:05:30;;;;;;;;;;;;;;;;;;12987934;19;20027;-64
2023/06/20 09:09:49;;;;;;;6.43;3.47;;;;;;;;;;12986970;19;19946;-64
2023/06/20 09:14:07;;;;;;;5.13;3.70;;;;;;;;;;12984883;19;20018;-64
2023/06/20 09:18:26;;;;;;;5.05;3.60;;;;;;;;;;12987446;19;20014;-64
2023/06/20 09:22:45;;;;;;;5.00;3.28;;;;;;;;;;12986703;19;20466;-63
2023/06/20 09:27:03;;;;;;;;;;;;;;;;;;12987033;19;20015;-64
2023/06/20 09:31:21;;;;;;;5.03;3.55;;;;;;;;;;12986667;19;19942;-64
2023/06/20 09:35:39;;;;;;;4.82;4.03;;;;;;;;;;12985493;19;20010;-63
2023/06/20 09:40:15;;;;;;;6.35;4.25;;;;;;;;;;12985286;19;20010;-61
2023/06/20 09:44:33;;;;;;;5.72;4.15;;;;;;;;;;12985037;19;20346;-61
2023/06/20 09:48:50;;;;;;;;;;;;;;;;;;12985940;19;20011;-61
2023/06/20 09:53:33;;;;;;;6.10;3.97;;;;;;;;;;12983867;19;19915;-61
2023/06/20 09:57:54;;;;;;;6.00;3.50;;;;;;;;;;12982633;19;20036;-61
2023/06/20 10:02:12;;;;;;;5.57;4.13;;;;;;;;;;12983674;19;20416;-61
2023/06/20 10:06:31;;;;;;;4.82;3.53;;;;;;;;;;12982312;19;20548;-61
2023/06/20 10:10:49;;;;;;;5.03;3.75;;;;;;;;;;12983547;19;20050;-61
2023/06/20 10:15:10;;;;;;;5.65;3.20;;;;;;;;;;12981471;19;20578;-61
2023/06/20 10:19:29;;;;;;;5.93;3.75;;;;;;;;;;12984282;19;20015;-61
2023/06/20 10:23:49;;;;;;;5.45;3.10;;;;;;;;;;12982358;19;20014;-61
2023/06/20 10:28:09;;;;;;;3.80;2.92;;;;;;;;;;12980821;19;20474;-62
2023/06/20 10:32:27;;;;;;;3.88;3.20;;;;;;;;;;12982685;19;20052;-61
2023/06/20 10:36:45;;;;;;;7.15;4.40;;;;;;;;;;12980659;19;20011;-61
2023/06/20 10:41:24;;;;;;;6.15;3.72;;;;;;;;;;12981161;19;20480;-61
2023/06/20 10:45:59;;;;;;;5.15;3.45;;;;;;;;;;12982078;19;20347;-61
2023/06/20 10:50:20;;;;;;;5.43;3.35;;;;;;;;;;12981563;19;20015;-61
2023/06/20 10:54:37;;;;;;;5.57;3.60;;;;;;;;;;12980659;19;20014;-61
2023/06/20 10:58:56;;;;;;;5.32;3.47;;;;;;;;;;12981072;19;20359;-61
2023/06/20 11:03:16;;;;;;;4.45;3.17;;;;;;;;;;12981432;19;20335;-61
2023/06/20 11:07:49;;;;;;;5.85;3.90;;;;;;;;;;12981019;19;20014;-61
2023/06/20 11:12:08;;;;;;;5.68;3.55;;;;;;;;;;12980571;19;20719;-61
2023/06/20 11:16:27;;;;;;;7.03;4.32;;;;;;;;;;12979981;19;20019;-61
2023/06/20 11:20:45;;;;;;;7.43;4.63;;;;;;;;;;12979990;19;20011;-61
2023/06/20 11:25:06;;;;;;;4.03;3.20;;;;;;;;;;12978449;19;20044;-61
2023/06/20 11:29:36;;;;;;;6.38;3.65;;;;;;;;;;12978974;19;20015;-61
2023/06/20 11:34:12;;;;;;;6.55;2.90;;;;;;;;;;12979500;19;20010;-61
2023/06/20 11:38:32;;;;;;;5.90;3.95;;;;;;;;;;12978649;19;20018;-60
2023/06/20 11:42:49;;;;;;;6.80;4.20;;;;;;;;;;12977670;19;20403;-61
2023/06/20 11:47:09;;;;;;;5.55;3.35;;;;;;;;;;12981948;19;20045;-61
2023/06/20 11:51:30;;;;;;;7.13;4.30;;;;;;;;;;12991978;19;20014;-61
2023/06/20 11:55:57;;;;;;;9.40;4.60;;;;;;;;;;12991187;19;20370;-61
2023/06/20 12:00:24;;;;;;;11.52;4.63;;;;;;;;;;13011723;19;20005;-61
2023/06/20 12:04:43;;;;;;;6.50;4.03;;;;;;;;;;13010726;19;20006;-61
2023/06/20 12:09:13;;;;;;;8.77;3.90;;;;;;;;;;13009678;19;20003;-62
2023/06/20 12:13:32;;;;;;;8.18;4.05;;;;;;;;;;13009592;19;20020;-61
2023/06/20 12:17:50;;;;;;;6.32;3.53;;;;;;;;;;13009263;19;20022;-61
2023/06/20 12:22:10;;;;;;;5.93;2.80;;;;;;;;;;13009295;19;20334;-61
2023/06/20 12:26:28;;;;;;;3.70;2.28;;;;;;;;;;13008737;19;20338;-61
2023/06/20 12:30:46;;;;;;;4.13;2.30;;;;;;;;;;13009426;19;20026;-61
2023/06/20 12:35:04;;;;;;;3.72;2.70;;;;;;;;;;13008081;19;20021;-62
2023/06/20 12:39:23;;;;;;;4.70;2.53;;;;;;;;;;13008792;19;20474;-61
2023/06/20 12:43:41;;;;;;;3.60;2.90;;;;;;;;;;13008927;19;20006;-61
2023/06/20 12:48:01;;;;;;;4.03;2.45;;;;;;;;;;13009228;19;20002;-61
2023/06/20 12:52:20;;;;;;;3.88;2.80;;;;;;;;;;13006872;19;20010;-61
2023/06/20 12:56:38;;;;;;;5.07;2.88;;;;;;;;;;13007473;19;20591;-61
2023/06/20 13:00:56;;;;;;;3.70;2.83;;;;;;;;;;13007029;19;20473;-61
2023/06/20 13:05:15;;;;;;;7.53;3.22;;;;;;;;;;13007160;19;20015;-60
2023/06/20 13:09:33;;;;;;;7.55;3.15;;;;;;;;;;13007525;19;20027;-61
2023/06/20 13:13:51;;;;;;;4.10;2.55;;;;;;;;;;13007179;19;20011;-61
2023/06/20 13:18:09;;;;;;;5.05;2.83;;;;;;;;;;13005804;19;20011;-61
2023/06/20 13:22:29;;;;;;;7.53;3.88;;;;;;;;;;13005920;19;20002;-61
2023/06/20 13:26:47;;;;;;;4.38;2.85;;;;;;;;;;13005644;19;20031;-60
2023/06/20 13:31:05;;;;;;;5.40;2.85;;;;;;;;;;13005521;19;20459;-61
2023/06/20 13:35:24;;;;;;;4.25;3.40;;;;;;;;;;13006406;19;20345;-61
2023/06/20 13:39:43;;;;;;;4.30;2.78;;;;;;;;;;13006223;19;20035;-61
2023/06/20 13:44:03;;;;;;;5.10;3.08;;;;;;;;;;13005216;19;20007;-61
2023/06/20 13:48:21;;;;;;;3.72;2.70;;;;;;;;;;13003160;19;20055;-61
2023/06/20 13:52:39;;;;;;;4.72;2.85;;;;;;;;;;13005222;19;20011;-60
2023/06/20 13:56:56;;;;;;;4.65;3.42;;;;;;;;;;13005179;19;20011;-60
2023/06/20 14:01:15;;;;;;;5.07;3.30;;;;;;;;;;13004189;19;20018;-60
2023/06/20 14:05:32;;;;;;;6.38;4.05;;;;;;;;;;13002831;19;20420;-60
2023/06/20 14:09:55;;;;;;;3.05;2.53;;;;;;;;;;13002479;19;20030;-60
2023/06/20 14:14:13;;;;;;;5.40;3.03;;;;;;;;;;13002535;19;20021;-61
2023/06/20 14:18:31;;;;;;;3.17;2.70;;;;;;;;;;13002215;19;20454;-61
2023/06/20 14:22:49;;;;;;;4.20;3.03;;;;;;;;;;13001788;19;20365;-60
2023/06/20 14:27:07;;;;;;;5.45;3.33;;;;;;;;;;13002349;19;20582;-61
2023/06/20 14:31:26;;;;;;;4.00;2.38;;;;;;;;;;13002843;19;20042;-60
2023/06/20 14:35:50;;;;;;;6.57;3.25;;;;;;;;;;13001628;19;20023;-60
2023/06/20 14:40:09;;;;;;;5.53;3.35;;;;;;;;;;13001832;19;20010;-60
2023/06/20 14:44:29;;;;;;;18.63;7.95;;;;;;;;;;13002415;19;20104;-60
2023/06/20 14:48:49;;;;;;;13.57;8.13;;;;;;;;;;13001997;19;20027;-60
2023/06/20 14:53:08;;;;;;;19.88;10.38;;;;;;;;;;13000061;19;20022;-60
2023/06/20 14:57:26;;;;;;;16.77;8.93;;;;;;;;;;13001500;19;20014;-60
2023/06/20 15:01:44;;;;;;;5.13;3.55;;;;;;;;;;13001734;19;20011;-61
2023/06/20 15:06:02;;;;;;;4.63;3.35;;;;;;;;;;13001077;19;20006;-62
2023/06/20 15:10:22;;;;;;;8.80;3.38;;;;;;;;;;13001128;19;20010;-61
2023/06/20 15:14:41;;;;;;;6.22;3.08;;;;;;;;;;13001015;19;20006;-60
2023/06/20 15:18:59;;;;;;;;;;;;;;;;;;13000471;19;20021;-61
2023/06/20 15:23:17;;;;;;;4.40;2.85;;;;;;;;;;13008757;19;19914;-60
2023/06/20 15:27:35;;;;;;;;;;;;;;;;;;13013305;19;20013;-60
2023/06/20 15:31:54;;;;;;;8.32;3.63;;;;;;;;;;13012759;19;20280;-60
2023/06/20 15:36:13;;;;;;;4.40;2.88;;;;;;;;;;13011308;19;19998;-60
2023/06/20 15:40:31;;;;;;;8.82;3.13;;;;;;;;;;13011963;19;20003;-60
2023/06/20 15:44:49;;;;;;;7.75;3.10;;;;;;;;;;13012087;19;20035;-60
2023/06/20 15:49:06;;;;;;;6.20;3.70;;;;;;;;;;13011219;19;20477;-61
2023/06/20 15:53:25;;;;;;;4.78;3.25;;;;;;;;;;13011809;19;20007;-60
2023/06/20 15:57:43;;;;;;;5.30;3.28;;;;;;;;;;13010736;19;20462;-60
2023/06/20 16:02:01;;;;;;;7.88;3.65;;;;;;;;;;13011363;19;20031;-60
2023/06/20 16:06:20;;;;;;;7.97;3.63;;;;;;;;;;13010675;19;20026;-60
2023/06/20 16:10:38;;;;;;;;;;;;;;;;;;13010904;19;20127;-61
2023/06/20 16:14:57;;;;;;;6.03;3.72;;;;;;;;;;13010676;19;19907;-60
2023/06/20 16:19:14;;;;;;;5.28;3.20;;;;;;;;;;13009288;19;20007;-61
2023/06/20 16:23:34;;;;;;;7.50;3.58;;;;;;;;;;13009940;19;20003;-61
2023/06/20 16:27:56;;;;;;;5.30;3.05;;;;;;;;;;13009636;19;20012;-61
2023/06/20 16:32:15;;;;;;;6.28;3.80;;;;;;;;;;13007508;19;20010;-61
2023/06/20 16:36:33;;;;;;;4.05;3.35;;;;;;;;;;13008885;19;20010;-61
2023/06/20 16:40:51;;;;;;;4.78;3.42;;;;;;;;;;13008983;19;20020;-61
2023/06/20 16:45:09;;;;;;;;;;;;;;;;;;13009110;19;20018;-61
2023/06/20 16:49:30;;;;;;;5.25;3.45;;;;;;;;;;13009269;19;19926;-60
2023/06/20 16:53:48;;;;;;;6.10;3.40;;;;;;;;;;13008371;19;20006;-61
2023/06/20 16:58:05;;;;;;;;;;;;;;;;;;13007449;19;20017;-60
2023/06/20 17:02:23;;;;;;;4.85;3.33;;;;;;;;;;13008084;19;19926;-60
2023/06/20 17:06:41;;;;;;;;;;;;;;;;;;13008511;19;20007;-61
2023/06/20 17:10:59;;;;;;;6.40;3.15;;;;;;;;;;13007557;19;19911;-62
2023/06/20 17:15:18;;;;;;;7.82;3.38;;;;;;;;;;13006910;19;20015;-61
2023/06/20 17:19:36;;;;;;;5.78;4.10;;;;;;;;;;13006609;19;20007;-61
2023/06/20 17:23:54;;;;;;;;;;;;;;;;;;13007597;19;20010;-61
2023/06/20 17:28:12;;;;;;;4.15;2.88;;;;;;;;;;13005409;19;19926;-61
2023/06/20 17:32:30;;;;;;;;;;;;;;;;;;13007381;19;20010;-61
2023/06/20 17:36:48;;;;;;;4.85;3.05;;;;;;;;;;13005759;19;19911;-61
2023/06/20 17:41:06;;;;;;;7.60;3.92;;;;;;;;;;13005404;19;20010;-61
2023/06/20 17:45:24;;;;;;;4.10;3.63;;;;;;;;;;13002980;19;20007;-61
2023/06/20 17:49:42;;;;;;;;;;;;;;;;;;13006472;19;20059;-61
2023/06/20 17:54:00;;;;;;;5.38;3.80;;;;;;;;;;13005156;19;19911;-61
2023/06/20 17:58:18;;;;;;;6.25;4.25;;;;;;;;;;13004397;19;20025;-61
2023/06/20 18:02:36;;;;;;;4.18;3.42;;;;;;;;;;13004384;19;20462;-61
2023/06/20 18:06:54;;;;;;;4.95;3.83;;;;;;;;;;13004548;19;20455;-61
2023/06/20 18:11:14;;;;;;;5.57;3.83;;;;;;;;;;13004222;19;20470;-61
2023/06/20 18:15:31;;;;;;;4.93;3.63;;;;;;;;;;13004444;19;20063;-61
2023/06/20 18:19:50;;;;;;;5.88;3.72;;;;;;;;;;13003699;19;20022;-61
2023/06/20 18:24:13;;;;;;;6.70;4.15;;;;;;;;;;13003209;19;20014;-61
2023/06/20 18:28:31;;;;;;;6.78;4.40;;;;;;;;;;13002903;19;20017;-61
2023/06/20 18:32:51;;;;;;;7.00;4.00;;;;;;;;;;13003161;19;20006;-61
2023/06/20 18:37:10;;;;;;;7.07;4.75;;;;;;;;;;13001767;19;20013;-61
2023/06/20 18:41:31;;;;;;;6.88;4.95;;;;;;;;;;13002518;19;20006;-61
2023/06/20 18:45:49;;;;;;;6.53;4.57;;;;;;;;;;13002741;19;20011;-61
2023/06/20 18:50:08;;;;;;;5.65;4.90;;;;;;;;;;13001449;19;20007;-61
2023/06/20 18:54:27;;;;;;;8.63;5.70;;;;;;;;;;13002135;19;20348;-61
2023/06/20 18:58:44;;;;;;;;;;;;;;;;;;13012433;19;20006;-61
2023/06/20 19:03:10;;;;;;;;;;;;;;;;;;13014609;19;20354;-61
2023/06/20 19:07:28;;;;;;;;;;;;;;;;;;13014798;19;19946;-61
2023/06/20 19:11:46;;;;;;;;;;;;;;;;;;13014520;19;19915;-61
2023/06/20 19:16:05;;;;;;;;;;;;;;;;;;13013591;19;19911;-61
2023/06/20 19:20:24;;;;;;;;;;;;;;;;;;13012473;19;21615;-61
2023/06/20 19:24:43;;;;;;;;;;;;;;;;;;13013862;19;20323;-61
2023/06/20 19:29:00;;;;;;;;;;;;;;;;;;13013688;19;19918;-61
2023/06/20 19:33:18;;;;;;;;;;;;;;;;;;13013063;19;19931;-61
2023/06/20 19:37:36;;;;;;;;;;;;;;;;;;13012023;19;19918;-61
2023/06/20 19:41:55;;;;;;;;;;;;;;;;;;13013147;19;19934;-61
2023/06/20 19:46:12;;;;;;;;;;;;;;;;;;13010917;19;20275;-61
2023/06/20 19:50:31;;;;;;;;;;;;;;;;;;13012762;19;19911;-61
2023/06/20 19:54:49;;;;;;;;;;;;;;;;;;13012563;19;20339;-61
2023/06/20 19:59:08;;;;;;;;;;;;;;;;;;13010515;19;20299;-61
2023/06/20 20:03:26;;;;;;;;;;;;;;;;;;13011741;19;20029;-61
2023/06/20 20:07:44;;;;;;;;;;;;;;;;;;13009258;19;19915;-61
2023/06/20 20:12:02;;;;;;;;;;;;;;;;;;13010539;19;19917;-62
2023/06/20 20:16:20;;;;;;;;;;;;;;;;;;13009614;19;19919;-61
2023/06/20 20:20:38;;;;;;;;;;;;;;;;;;13010949;19;19911;-61
2023/06/20 20:24:56;;;;;;;;;;;;;;;;;;13010782;19;19910;-61
2023/06/20 20:29:29;;;;;;;;;;;;;;;;;;13010608;19;20234;-61
2023/06/20 20:33:48;;;;;;;;;;;;;;;;;;13010126;19;20323;-61
2023/06/20 20:38:10;;;;;;;;;;;;;;;;;;13008599;19;19921;-61
2023/06/20 20:42:28;;;;;;;;;;;;;;;;;;13008884;19;20243;-61
2023/06/20 20:46:46;;;;;;;;;;;;;;;;;;13009771;19;19919;-61
2023/06/20 20:51:04;;;;;;;;;;;;;;;;;;13009034;19;20004;-61
2023/06/20 20:55:21;;;;;;;;;;;;;;;;;;13006345;19;19942;-61
2023/06/20 20:59:39;;;;;;;;;;;;;;;;;;13008360;19;19935;-61
2023/06/20 21:03:57;;;;;;;;;;;;;;;;;;13009436;19;19914;-61
2023/06/20 21:08:15;;;;;;;;;;;;;;;;;;13008339;19;19907;-60
2023/06/20 21:12:33;;;;;;;;;;;;;;;;;;13008642;19;20268;-60
2023/06/20 21:16:52;;;;;;;;;;;;;;;;;;13008136;19;20381;-60
2023/06/20 21:21:09;;;;;;;;;;;;;;;;;;13006935;19;20346;-60
2023/06/20 21:25:29;;;;;;;;;;;;;;;;;;13007587;19;20355;-60
2023/06/20 21:29:48;;;;;;;;;;;;;;;;;;13007280;19;19911;-60
2023/06/20 21:34:07;;;;;;;;;;;;;;;;;;13006712;19;19922;-61
2023/06/20 21:38:28;;;;;;;;;;;;;;;;;;13006392;19;19922;-61
2023/06/20 21:42:45;;;;;;;;;;;;;;;;;;13005694;19;19911;-60
2023/06/20 21:47:04;;;;;;;;;;;;;;;;;;13005929;19;19919;-61
2023/06/20 21:51:22;;;;;;;;;;;;;;;;;;13006072;19;19915;-60
2023/06/20 21:55:40;;;;;;;;;;;;;;;;;;13006419;19;19910;-61
2023/06/20 21:59:58;;;;;;;;;;;;;;;;;;13005640;19;19910;-61
2023/06/20 22:04:15;;;;;;;;;;;;;;;;;;13004234;19;19922;-60
2023/06/20 22:08:33;;;;;;;;;;;;;;;;;;13004943;19;19918;-60
2023/06/20 22:12:50;;;;;;;;;;;;;;;;;;13003131;19;19915;-60
2023/06/20 22:17:08;;;;;;;;;;;;;;;;;;13003496;19;19907;-61
2023/06/20 22:21:26;;;;;;;;;;;;;;;;;;13004152;19;19923;-60
2023/06/20 22:25:44;;;;;;;;;;;;;;;;;;13002591;19;19944;-60
2023/06/20 22:30:03;;;;;;;;;;;;;;;;;;13001772;19;19926;-60
2023/06/20 22:34:22;;;;;;;;;;;;;;;;;;13003585;19;20241;-61
2023/06/20 22:38:41;;;;;;;;;;;;;;;;;;13002588;19;19915;-60
2023/06/20 22:43:03;;;;;;;;;;;;;;;;;;13002574;19;19911;-60
2023/06/20 22:47:21;;;;;;;;;;;;;;;;;;13003087;19;19935;-61
2023/06/20 22:51:38;;;;;;;;;;;;;;;;;;13002645;19;19918;-60
2023/06/20 22:55:56;;;;;;;;;;;;;;;;;;13002720;19;20022;-60
2023/06/20 23:00:16;;;;;;;;;;;;;;;;;;13001882;19;20220;-61
2023/06/20 23:04:33;;;;;;;;;;;;;;;;;;13002072;19;19935;-60
2023/06/20 23:08:51;;;;;;;;;;;;;;;;;;13001676;19;19922;-61
2023/06/20 23:13:10;;;;;;;;;;;;;;;;;;13000593;19;19922;-60
2023/06/20 23:17:27;;;;;;;;;;;;;;;;;;13001458;19;19926;-60
2023/06/20 23:21:46;;;;;;;;;;;;;;;;;;13001241;19;19945;-61
2023/06/20 23:26:03;;;;;;;;;;;;;;;;;;13000497;19;19918;-61
2023/06/20 23:30:21;;;;;;;;;;;;;;;;;;13001271;19;19911;-61
2023/06/20 23:34:39;;;;;;;;;;;;;;;;;;13000854;19;20362;-61
2023/06/20 23:38:57;;;;;;;;;;;;;;;;;;13000146;19;19926;-60
2023/06/20 23:43:15;;;;;;;;;;;;;;;;;;13006798;19;19910;-61
2023/06/20 23:47:34;;;;;;;;;;;;;;;;;;13011604;19;19926;-60
2023/06/20 23:51:54;;;;;;;;;;;;;;;;;;13012877;19;19934;-62
2023/06/20 23:56:11;;;;;;;;;;;;;;;;;;13011685;19;20330;-60
